createdAt,value
2018-04-10T00:01:18.210Z,13.17
2018-04-10T00:03:47.408Z,14.80
2018-04-10T00:06:15.705Z,14.00
2018-04-10T00:08:44.032Z,13.97
2018-04-10T00:11:13.125Z,15.27
2018-04-10T00:13:41.517Z,17.37
2018-04-10T00:16:09.828Z,18.03
2018-04-10T00:18:38.129Z,17.00
2018-04-10T00:21:06.456Z,15.77
2018-04-10T00:23:34.840Z,15.17
2018-04-10T00:26:03.258Z,17.00
2018-04-10T00:28:31.581Z,17.10
2018-04-10T00:31:00.652Z,17.30
2018-04-10T00:33:28.983Z,15.97
2018-04-10T00:35:57.311Z,15.10
2018-04-10T00:38:25.636Z,18.80
2018-04-10T00:40:53.928Z,16.40
2018-04-10T00:43:22.280Z,17.00
2018-04-10T00:45:51.348Z,18.17
2018-04-10T00:48:19.690Z,19.10
2018-04-10T00:50:48.011Z,17.83
2018-04-10T00:53:28.191Z,15.63
2018-04-10T00:55:56.519Z,18.50
2018-04-10T00:58:25.616Z,19.13
2018-04-10T01:00:53.949Z,17.87
2018-04-10T01:03:23.041Z,17.93
2018-04-10T01:05:52.880Z,19.07
2018-04-10T01:08:21.172Z,16.47
2018-04-10T01:10:49.504Z,18.90
2018-04-10T01:13:18.564Z,20.00
2018-04-10T01:15:46.904Z,19.80
2018-04-10T01:18:15.208Z,20.17
2018-04-10T01:20:43.553Z,19.43
2018-04-10T01:23:11.897Z,21.10
2018-04-10T01:25:40.301Z,18.83
2018-04-10T01:28:08.681Z,20.80
2018-04-10T01:30:36.972Z,20.63
2018-04-10T01:33:05.297Z,21.47
2018-04-10T01:35:33.592Z,21.10
2018-04-10T01:38:02.018Z,21.97
2018-04-10T01:40:30.312Z,22.70
2018-04-10T01:42:58.687Z,21.70
2018-04-10T01:45:27.720Z,21.17
2018-04-10T01:47:56.051Z,22.17
2018-04-10T01:50:24.352Z,24.03
2018-04-10T01:52:52.682Z,22.20
2018-04-10T01:55:20.981Z,23.23
2018-04-10T01:57:50.172Z,21.23
2018-04-10T02:00:18.577Z,23.50
2018-04-10T02:02:46.918Z,23.63
2018-04-10T02:05:15.989Z,23.17
2018-04-10T02:07:44.300Z,22.23
2018-04-10T02:10:12.644Z,23.07
2018-04-10T02:12:41.931Z,25.50
2018-04-10T02:15:10.233Z,24.30
2018-04-10T02:17:38.532Z,21.00
2018-04-10T02:20:06.865Z,21.10
2018-04-10T02:22:35.928Z,20.90
2018-04-10T02:25:04.258Z,20.30
2018-04-10T02:27:32.556Z,23.97
2018-04-10T02:30:00.872Z,22.23
2018-04-10T02:32:29.224Z,22.67
2018-04-10T02:34:57.581Z,21.47
2018-04-10T02:37:25.872Z,24.43
2018-04-10T02:39:54.209Z,24.40
2018-04-10T02:42:23.304Z,21.80
2018-04-10T02:44:51.600Z,22.50
2018-04-10T02:47:19.929Z,23.70
2018-04-10T02:49:48.984Z,22.87
2018-04-10T02:52:17.307Z,21.80
2018-04-10T02:54:45.631Z,23.10
2018-04-10T02:57:13.932Z,25.50
2018-04-10T02:59:42.440Z,23.90
2018-04-10T03:02:10.735Z,25.40
2018-04-10T03:04:39.032Z,23.90
2018-04-10T03:07:07.464Z,24.07
2018-04-10T03:09:36.533Z,24.47
2018-04-10T03:12:04.829Z,22.87
2018-04-10T03:14:33.160Z,24.70
2018-04-10T03:17:01.509Z,25.00
2018-04-10T03:19:29.815Z,24.33
2018-04-10T03:21:58.168Z,22.77
2018-04-10T03:24:26.504Z,25.20
2018-04-10T03:26:55.566Z,25.63
2018-04-10T03:29:23.892Z,23.30
2018-04-10T03:31:52.193Z,26.77
2018-04-10T03:34:20.520Z,25.13
2018-04-10T03:36:49.594Z,25.17
2018-04-10T03:39:17.920Z,24.87
2018-04-10T03:41:46.975Z,23.03
2018-04-10T03:44:16.076Z,25.30
2018-04-10T03:46:44.410Z,23.53
2018-04-10T03:49:12.789Z,24.70
2018-04-10T03:51:42.781Z,27.07
2018-04-10T03:54:11.143Z,25.77
2018-04-10T03:56:40.229Z,25.73
2018-04-10T03:59:08.528Z,25.10
2018-04-10T04:01:36.857Z,26.03
2018-04-10T04:04:05.949Z,26.57
2018-04-10T04:06:34.244Z,27.27
2018-04-10T04:09:02.544Z,27.00
2018-04-10T04:11:30.868Z,26.40
2018-04-10T04:13:59.397Z,27.80
2018-04-10T04:16:40.365Z,28.63
2018-04-10T04:19:20.547Z,30.27
2018-04-10T04:21:56.508Z,30.73
2018-04-10T04:24:24.802Z,29.90
2018-04-10T04:26:53.120Z,30.17
2018-04-10T04:29:21.418Z,30.27
2018-04-10T04:31:51.424Z,29.50
2018-04-10T04:34:20.517Z,28.50
2018-04-10T04:36:48.812Z,29.50
2018-04-10T04:39:17.161Z,31.60
2018-04-10T04:41:45.456Z,31.77
2018-04-10T04:44:13.801Z,30.97
2018-04-10T04:46:42.116Z,30.27
2018-04-10T04:49:10.464Z,29.00
2018-04-10T04:51:38.776Z,30.00
2018-04-10T04:54:07.102Z,30.03
2018-04-10T04:56:35.428Z,30.13
2018-04-10T04:59:03.724Z,31.70
2018-04-10T05:01:32.032Z,29.00
2018-04-10T05:04:00.364Z,30.80
2018-04-10T05:06:29.425Z,30.97
2018-04-10T05:08:57.873Z,31.23
2018-04-10T05:11:26.940Z,30.13
2018-04-10T05:13:55.477Z,29.77
2018-04-10T05:16:23.776Z,29.10
2018-04-10T05:18:52.069Z,27.93
2018-04-10T05:21:20.400Z,29.20
2018-04-10T05:23:48.725Z,31.30
2018-04-10T05:26:17.795Z,30.33
2018-04-10T05:28:46.124Z,29.00
2018-04-10T05:31:14.457Z,29.60
2018-04-10T05:33:42.764Z,31.50
2018-04-10T05:36:11.080Z,32.27
2018-04-10T05:38:39.430Z,31.50
2018-04-10T05:41:07.729Z,30.57
2018-04-10T05:43:36.056Z,29.97
2018-04-10T05:46:05.116Z,28.90
2018-04-10T05:48:33.453Z,29.77
2018-04-10T05:51:01.787Z,28.00
2018-04-10T05:53:30.884Z,29.00
2018-04-10T05:55:59.184Z,27.30
2018-04-10T05:58:27.527Z,27.73
2018-04-10T06:00:55.833Z,28.27
2018-04-10T06:03:24.249Z,28.23
2018-04-10T06:05:52.553Z,27.20
2018-04-10T06:08:20.880Z,25.17
2018-04-10T06:10:49.208Z,27.13
2018-04-10T06:13:17.500Z,28.27
2018-04-10T06:15:45.833Z,26.57
2018-04-10T06:18:14.916Z,28.53
2018-04-10T06:20:43.268Z,26.57
2018-04-10T06:23:11.651Z,29.90
2018-04-10T06:25:39.961Z,29.00
2018-04-10T06:28:09.053Z,27.33
2018-04-10T06:30:37.546Z,26.80
2018-04-10T06:33:05.839Z,27.30
2018-04-10T06:35:34.150Z,29.23
2018-04-10T06:38:02.479Z,27.70
2018-04-10T06:40:31.554Z,28.43
2018-04-10T06:42:59.885Z,28.50
2018-04-10T06:45:28.185Z,29.37
2018-04-10T06:47:56.516Z,31.40
2018-04-10T06:50:25.582Z,28.70
2018-04-10T06:52:54.107Z,29.20
2018-04-10T06:55:22.402Z,27.87
2018-04-10T06:57:50.701Z,27.50
2018-04-10T07:00:19.044Z,31.23
2018-04-10T07:02:48.141Z,29.17
2018-04-10T07:05:16.486Z,28.77
2018-04-10T07:07:44.812Z,30.90
2018-04-10T07:10:13.157Z,30.17
2018-04-10T07:12:41.480Z,25.80
2018-04-10T07:15:10.588Z,27.07
2018-04-10T07:17:39.654Z,28.13
2018-04-10T07:20:07.976Z,27.30
2018-04-10T07:22:36.305Z,27.77
2018-04-10T07:25:04.633Z,27.07
2018-04-10T07:27:32.919Z,29.47
2018-04-10T07:30:02.408Z,28.80
2018-04-10T07:32:30.705Z,26.43
2018-04-10T07:34:59.006Z,25.80
2018-04-10T07:37:27.331Z,27.93
2018-04-10T07:39:55.682Z,27.17
2018-04-10T07:42:23.969Z,27.30
2018-04-10T07:44:53.029Z,27.13
2018-04-10T07:47:21.360Z,26.60
2018-04-10T07:49:49.694Z,25.73
2018-04-10T07:52:18.784Z,28.13
2018-04-10T07:54:47.071Z,26.63
2018-04-10T07:57:15.406Z,26.33
2018-04-10T07:59:44.469Z,25.97
2018-04-10T08:02:12.823Z,23.93
2018-04-10T08:04:41.904Z,25.87
2018-04-10T08:07:10.228Z,28.20
2018-04-10T08:09:38.532Z,25.70
2018-04-10T08:12:07.609Z,29.17
2018-04-10T08:14:35.945Z,23.20
2018-04-10T08:17:04.242Z,25.83
2018-04-10T08:19:32.537Z,27.17
2018-04-10T08:22:00.860Z,23.67
2018-04-10T08:24:29.159Z,25.80
2018-04-10T08:26:57.493Z,27.30
2018-04-10T08:29:26.589Z,24.40
2018-04-10T08:31:54.875Z,24.30
2018-04-10T08:34:23.227Z,25.27
2018-04-10T08:36:52.273Z,26.80
2018-04-10T08:39:20.599Z,26.70
2018-04-10T08:41:48.894Z,25.53
2018-04-10T08:44:18.049Z,24.60
2018-04-10T08:46:46.336Z,24.57
2018-04-10T08:49:14.680Z,23.47
2018-04-10T08:51:42.994Z,24.30
2018-04-10T08:54:11.298Z,25.60
2018-04-10T08:56:39.626Z,25.90
2018-04-10T08:59:07.918Z,25.57
2018-04-10T09:01:36.536Z,25.97
2018-04-10T09:04:04.828Z,25.07
2018-04-10T09:06:33.130Z,27.37
2018-04-10T09:09:01.455Z,24.30
2018-04-10T09:11:29.735Z,23.20
2018-04-10T09:13:58.073Z,22.17
2018-04-10T09:16:26.362Z,24.10
2018-04-10T09:18:54.676Z,22.90
2018-04-10T09:21:22.977Z,23.60
2018-04-10T09:23:51.306Z,25.60
2018-04-10T09:26:19.605Z,22.10
2018-04-10T09:28:48.693Z,23.37
2018-04-10T09:31:16.995Z,24.70
2018-04-10T09:33:45.477Z,21.90
2018-04-10T09:36:13.781Z,20.00
2018-04-10T09:38:42.079Z,20.67
2018-04-10T09:41:10.406Z,24.70
2018-04-10T09:43:38.803Z,25.40
2018-04-10T09:46:07.067Z,25.33
2018-04-10T09:48:35.393Z,24.57
2018-04-10T09:51:03.695Z,24.10
2018-04-10T09:53:32.020Z,23.53
2018-04-10T09:56:00.314Z,23.57
2018-04-10T09:58:28.641Z,24.37
2018-04-10T10:00:57.732Z,26.47
2018-04-10T10:03:26.428Z,24.93
2018-04-10T10:05:54.726Z,26.23
2018-04-10T10:08:23.064Z,21.50
2018-04-10T10:10:51.361Z,23.40
2018-04-10T10:13:19.693Z,25.33
2018-04-10T10:15:47.985Z,24.20
2018-04-10T10:18:17.084Z,18.47
2018-04-10T10:20:45.368Z,23.70
2018-04-10T10:23:13.708Z,20.93
2018-04-10T10:25:42.801Z,24.50
2018-04-10T10:28:11.099Z,23.47
2018-04-10T10:30:39.453Z,22.53
2018-04-10T10:33:07.753Z,22.13
2018-04-10T10:35:36.864Z,23.63
2018-04-10T10:38:05.191Z,22.20
2018-04-10T10:40:33.513Z,22.33
2018-04-10T10:43:01.809Z,21.23
2018-04-10T10:45:30.132Z,20.97
2018-04-10T10:47:58.459Z,22.00
2018-04-10T10:50:27.544Z,21.73
2018-04-10T10:52:55.837Z,22.43
2018-04-10T10:55:24.169Z,21.97
2018-04-10T10:57:52.465Z,21.77
2018-04-10T11:00:20.788Z,22.30
2018-04-10T11:02:49.868Z,18.80
2018-04-10T11:05:18.174Z,19.40
2018-04-10T11:07:46.539Z,19.53
2018-04-10T11:10:15.605Z,19.67
2018-04-10T11:12:43.900Z,19.30
2018-04-10T11:15:12.520Z,18.20
2018-04-10T11:17:40.821Z,17.20
2018-04-10T11:20:09.167Z,18.90
2018-04-10T11:22:39.151Z,19.53
2018-04-10T11:25:07.484Z,18.93
2018-04-10T11:27:35.772Z,17.50
2018-04-10T11:30:04.110Z,17.87
2018-04-10T11:32:32.436Z,17.37
2018-04-10T11:35:00.973Z,18.17
2018-04-10T11:37:29.260Z,15.90
2018-04-10T11:39:57.552Z,19.00
2018-04-10T11:42:25.867Z,18.03
2018-04-10T11:44:54.170Z,17.37
2018-04-10T11:47:22.722Z,17.43
2018-04-10T11:49:50.992Z,16.63
2018-04-10T11:52:19.296Z,18.20
2018-04-10T11:54:47.617Z,17.50
2018-04-10T11:57:15.924Z,17.30
2018-04-10T11:59:44.208Z,15.00
2018-04-10T12:02:12.562Z,15.80
2018-04-10T12:04:40.862Z,16.20
2018-04-10T12:07:09.157Z,13.70
2018-04-10T12:09:37.497Z,14.47
2018-04-10T12:12:05.797Z,13.73
2018-04-10T12:14:34.124Z,15.57
2018-04-10T12:17:02.421Z,14.60
2018-04-10T12:19:30.717Z,15.97
2018-04-10T12:21:59.053Z,13.57
2018-04-10T12:24:28.140Z,14.13
2018-04-10T12:26:56.436Z,14.00
2018-04-10T12:29:24.761Z,13.73
2018-04-10T12:31:53.053Z,15.10
2018-04-10T12:34:21.388Z,13.50
2018-04-10T12:36:50.446Z,12.80
2018-04-10T12:39:18.736Z,13.10
2018-04-10T12:41:47.066Z,13.70
2018-04-10T12:44:15.361Z,11.23
2018-04-10T12:46:43.692Z,12.37
2018-04-10T12:49:11.988Z,12.40
2018-04-10T12:51:40.276Z,11.67
2018-04-10T12:54:08.653Z,13.00
2018-04-10T12:56:37.172Z,10.70
2018-04-10T12:59:05.558Z,10.77
2018-04-10T13:01:33.972Z,12.23
2018-04-10T13:04:02.306Z,11.40
2018-04-10T13:06:30.625Z,10.10
2018-04-10T13:09:00.020Z,10.47
2018-04-10T13:11:28.356Z,10.03
2018-04-10T13:13:57.520Z,10.90
2018-04-10T13:16:25.886Z,7.17
2018-04-10T13:18:54.300Z,8.40
2018-04-10T13:21:22.612Z,7.60
2018-04-10T13:23:50.931Z,7.80
2018-04-10T13:26:19.260Z,8.20
2018-04-10T13:28:47.540Z,7.90
2018-04-10T13:31:16.061Z,7.13
2018-04-10T13:33:44.429Z,8.57
2018-04-10T13:36:12.852Z,8.00
2018-04-10T13:38:41.430Z,7.77
2018-04-10T13:41:10.189Z,7.97
2018-04-10T13:43:39.566Z,8.53
2018-04-10T13:46:08.836Z,6.47
2018-04-10T13:48:38.064Z,8.67
2018-04-10T13:51:06.587Z,7.00
2018-04-10T13:53:35.053Z,8.70
2018-04-10T13:56:03.512Z,9.00
2018-04-10T13:58:32.193Z,7.20
2018-04-10T14:01:00.768Z,8.07
2018-04-10T14:03:29.220Z,7.87
2018-04-10T14:05:57.794Z,7.70
2018-04-10T14:08:26.105Z,7.60
2018-04-10T14:10:54.531Z,7.70
2018-04-10T14:13:22.813Z,7.57
2018-04-10T14:15:51.139Z,7.03
2018-04-10T14:18:19.465Z,8.13
2018-04-10T14:20:48.659Z,8.40
2018-04-10T14:23:17.152Z,7.00
2018-04-10T14:25:45.443Z,7.67
2018-04-10T14:28:13.756Z,8.77
2018-04-10T14:30:42.076Z,7.30
2018-04-10T14:33:10.368Z,7.80
2018-04-10T14:35:38.841Z,8.70
2018-04-10T14:38:07.136Z,9.27
2018-04-10T14:40:35.452Z,7.73
2018-04-10T14:43:03.786Z,8.13
2018-04-10T14:45:32.117Z,8.10
2018-04-10T14:48:01.421Z,7.40
2018-04-10T14:50:29.759Z,8.93
2018-04-10T14:52:58.838Z,8.10
2018-04-10T14:55:27.157Z,9.10
2018-04-10T14:57:55.441Z,9.23
2018-04-10T15:00:23.757Z,9.40
2018-04-10T15:02:52.085Z,8.63
2018-04-10T15:05:21.168Z,6.93
2018-04-10T15:07:49.465Z,7.93
2018-04-10T15:10:17.775Z,8.50
2018-04-10T15:12:46.065Z,8.37
2018-04-10T15:15:14.381Z,9.70
2018-04-10T15:17:42.669Z,9.07
2018-04-10T15:20:10.996Z,8.93
2018-04-10T15:22:39.465Z,9.37
2018-04-10T15:25:07.757Z,9.93
2018-04-10T15:27:36.044Z,9.90
2018-04-10T15:30:04.375Z,8.80
2018-04-10T15:32:32.673Z,9.70
2018-04-10T15:35:01.006Z,8.33
2018-04-10T15:37:29.315Z,8.83
2018-04-10T15:39:58.381Z,7.57
2018-04-10T15:42:26.660Z,8.00
2018-04-10T15:44:55.165Z,7.37
2018-04-10T15:47:23.498Z,8.00
2018-04-10T15:49:51.780Z,7.30
2018-04-10T15:52:20.103Z,5.87
2018-04-10T15:54:48.380Z,5.70
2018-04-10T15:57:16.692Z,6.20
2018-04-10T15:59:44.980Z,5.90
2018-04-10T16:02:13.294Z,5.40
2018-04-10T16:04:41.573Z,5.10
2018-04-10T16:07:10.681Z,4.70
2018-04-10T16:09:39.757Z,5.10
2018-04-10T16:12:08.164Z,3.40
2018-04-10T16:14:36.456Z,4.10
2018-04-10T16:17:04.789Z,4.90
2018-04-10T16:19:33.080Z,4.47
2018-04-10T16:22:01.576Z,4.63
2018-04-10T16:24:29.866Z,3.80
2018-04-10T16:26:58.145Z,4.10
2018-04-10T16:29:26.468Z,4.37
2018-04-10T16:31:54.751Z,4.10
2018-04-10T16:34:23.108Z,3.77
2018-04-10T16:36:51.414Z,3.70
2018-04-10T16:39:19.730Z,2.83
2018-04-10T16:41:48.785Z,2.97
2018-04-10T16:44:17.091Z,2.20
2018-04-10T16:46:45.380Z,3.20
2018-04-10T16:49:13.696Z,3.13
2018-04-10T16:51:42.012Z,2.10
2018-04-10T16:54:10.337Z,3.03
2018-04-10T16:56:38.661Z,2.30
2018-04-10T16:59:07.718Z,3.10
2018-04-10T17:01:36.068Z,3.53
2018-04-10T17:04:04.340Z,2.70
2018-04-10T17:06:32.632Z,2.83
2018-04-10T17:09:00.945Z,3.17
2018-04-10T17:11:29.233Z,3.13
2018-04-10T17:13:57.682Z,3.00
2018-04-10T17:16:25.955Z,2.50
2018-04-10T17:18:54.285Z,2.90
2018-04-10T17:21:22.580Z,3.20
2018-04-10T17:23:51.211Z,2.60
2018-04-10T17:26:20.296Z,2.43
2018-04-10T17:28:48.572Z,3.37
2018-04-10T17:31:16.894Z,3.50
2018-04-10T17:33:45.516Z,2.37
2018-04-10T17:36:13.801Z,3.03
2018-04-10T17:38:42.085Z,3.40
2018-04-10T17:41:10.408Z,3.20
2018-04-10T17:43:38.688Z,2.83
2018-04-10T17:46:07.033Z,3.13
2018-04-10T17:48:35.352Z,2.53
2018-04-10T17:51:04.433Z,2.67
2018-04-10T17:53:32.711Z,2.37
2018-04-10T17:56:01.035Z,3.27
2018-04-10T17:58:29.347Z,2.40
2018-04-10T18:00:57.669Z,2.70
2018-04-10T18:03:26.053Z,2.13
2018-04-10T18:05:54.368Z,2.67
2018-04-10T18:08:22.760Z,2.53
2018-04-10T18:10:51.044Z,2.90
2018-04-10T18:13:19.333Z,2.70
2018-04-10T18:15:47.649Z,3.60
2018-04-10T18:18:15.970Z,4.03
2018-04-10T18:20:44.259Z,3.17
2018-04-10T18:23:12.593Z,2.97
2018-04-10T18:25:40.876Z,2.60
2018-04-10T18:28:09.196Z,3.57
2018-04-10T18:30:37.492Z,3.27
2018-04-10T18:33:05.781Z,2.60
2018-04-10T18:35:34.095Z,2.80
2018-04-10T18:38:02.376Z,2.97
2018-04-10T18:40:31.901Z,3.10
2018-04-10T18:43:00.190Z,3.13
2018-04-10T18:45:28.469Z,2.90
2018-04-10T18:47:56.801Z,2.70
2018-04-10T18:50:25.116Z,3.20
2018-04-10T18:52:53.412Z,2.47
2018-04-10T18:55:21.728Z,3.17
2018-04-10T18:57:50.012Z,2.90
2018-04-10T19:00:18.327Z,3.20
2018-04-10T19:02:46.649Z,3.23
2018-04-10T19:05:14.928Z,3.20
2018-04-10T19:07:43.254Z,3.70
2018-04-10T19:10:12.341Z,3.03
2018-04-10T19:12:40.656Z,2.70
2018-04-10T19:15:09.051Z,3.00
2018-04-10T19:17:37.342Z,2.93
2018-04-10T19:20:05.806Z,3.03
2018-04-10T19:22:34.877Z,2.97
2018-04-10T19:25:03.191Z,2.67
2018-04-10T19:27:31.522Z,4.40
2018-04-10T19:30:00.606Z,2.77
2018-04-10T19:32:28.932Z,3.83
2018-04-10T19:34:57.228Z,3.50
2018-04-10T19:37:25.569Z,3.87
2018-04-10T19:39:53.893Z,3.10
2018-04-10T19:42:22.200Z,3.70
2018-04-10T19:44:50.520Z,2.90
2018-04-10T19:47:20.044Z,3.73
2018-04-10T19:49:48.337Z,6.77
2018-04-10T19:52:16.630Z,6.00
2018-04-10T19:54:44.966Z,6.07
2018-04-10T19:57:13.260Z,5.93
2018-04-10T19:59:41.561Z,5.40
2018-04-10T20:02:09.977Z,4.90
2018-04-10T20:04:39.070Z,6.27
2018-04-10T20:07:07.394Z,6.27
2018-04-10T20:09:35.761Z,7.03
2018-04-10T20:12:04.053Z,6.90
2018-04-10T20:14:32.384Z,7.53
2018-04-10T20:17:00.700Z,8.13
2018-04-10T20:19:28.993Z,9.80
2018-04-10T20:21:57.489Z,8.40
2018-04-10T20:24:25.801Z,8.23
2018-04-10T20:26:54.177Z,8.63
2018-04-10T20:29:22.469Z,9.73
2018-04-10T20:31:50.788Z,9.60
2018-04-10T20:34:19.116Z,10.30
2018-04-10T20:36:47.405Z,9.40
2018-04-10T20:39:15.719Z,8.70
2018-04-10T20:41:44.040Z,8.97
2018-04-10T20:44:13.140Z,8.70
2018-04-10T20:46:41.757Z,8.90
2018-04-10T20:49:10.068Z,10.40
2018-04-10T20:51:38.392Z,10.13
2018-04-10T20:54:07.514Z,10.27
2018-04-10T20:56:36.600Z,9.70
2018-04-10T20:59:04.936Z,10.10
2018-04-10T21:01:34.023Z,11.50
2018-04-10T21:04:02.351Z,10.10
2018-04-10T21:06:31.749Z,11.43
2018-04-10T21:09:00.044Z,10.60
2018-04-10T21:11:28.336Z,11.10
2018-04-10T21:13:56.668Z,9.70
2018-04-10T21:16:26.468Z,11.30
2018-04-10T21:18:54.796Z,9.70
2018-04-10T21:21:23.909Z,9.90
2018-04-10T21:23:52.219Z,10.70
2018-04-10T21:26:20.556Z,10.53
2018-04-10T21:28:49.613Z,10.37
2018-04-10T21:31:17.904Z,11.40
2018-04-10T21:33:46.451Z,10.83
2018-04-10T21:36:14.736Z,9.40
2018-04-10T21:38:43.028Z,10.10
2018-04-10T21:41:11.558Z,8.40
2018-04-10T21:43:39.849Z,8.33
2018-04-10T21:46:08.190Z,8.07
2018-04-10T21:48:36.656Z,6.93
2018-04-10T21:51:04.965Z,6.10
2018-04-10T21:53:34.241Z,6.40
2018-04-10T21:56:02.541Z,6.57
2018-04-10T21:58:31.581Z,6.50
2018-04-10T22:00:59.892Z,8.87
2018-04-10T22:03:28.218Z,7.63
2018-04-10T22:05:56.536Z,8.10
2018-04-10T22:08:24.941Z,9.60
2018-04-10T22:10:53.269Z,10.10
2018-04-10T22:13:22.323Z,10.33
2018-04-10T22:15:50.753Z,10.57
2018-04-10T22:18:19.047Z,10.93
2018-04-10T22:20:47.368Z,10.87
2018-04-10T22:23:15.660Z,11.73
2018-04-10T22:25:43.989Z,11.37
2018-04-10T22:28:13.079Z,10.60
2018-04-10T22:30:41.516Z,10.10
2018-04-10T22:33:10.549Z,11.87
2018-04-10T22:35:38.842Z,11.80
2018-04-10T22:38:07.246Z,11.30
2018-04-10T22:40:35.546Z,13.33
2018-04-10T22:43:03.848Z,12.13
2018-04-10T22:45:32.168Z,11.80
2018-04-10T22:48:00.461Z,12.30
2018-04-10T22:50:28.789Z,12.53
2018-04-10T22:52:57.117Z,10.63
2018-04-10T22:55:26.357Z,11.10
2018-04-10T22:57:55.422Z,11.00
2018-04-10T23:00:35.708Z,9.17
2018-04-10T23:03:03.765Z,10.63
2018-04-10T23:05:32.829Z,9.50
2018-04-10T23:08:01.157Z,9.70
2018-04-10T23:10:29.454Z,11.30
2018-04-10T23:12:57.781Z,9.37
2018-04-10T23:15:26.104Z,10.30
2018-04-10T23:17:55.209Z,10.33
2018-04-10T23:20:23.541Z,10.37
2018-04-10T23:22:51.833Z,9.90
2018-04-10T23:25:21.021Z,11.97
2018-04-10T23:27:49.348Z,11.00
2018-04-10T23:30:17.642Z,11.40
2018-04-10T23:32:45.936Z,10.47
2018-04-10T23:35:14.265Z,10.90
2018-04-10T23:37:43.333Z,10.90
2018-04-10T23:40:11.661Z,10.77
2018-04-10T23:42:39.972Z,10.90
2018-04-10T23:45:08.313Z,12.63
2018-04-10T23:47:36.618Z,13.27
2018-04-10T23:50:04.984Z,10.97
2018-04-10T23:52:33.309Z,14.13
2018-04-10T23:55:02.405Z,13.70
2018-04-10T23:57:30.696Z,14.20
2018-04-10T23:59:59.023Z,15.20
